This is the latest recevied weather packets stored in our database for station/object OE3TEC-15. If no packets are shown the sender has not sent any weather packets the latest 10 day(s).
| Time | Temp. | Humidity | Pressure | Rain* | Wind** | Luminosity | Snow |
|---|---|---|---|---|---|---|---|
| 1777754889 | 7.22° C | 71% | 1020.7 hPa | 0 mm | - | 0 W/m² | - |
| 1777754282 | 7.22° C | 72% | 1020.5 hPa | 0 mm | - | 0 W/m² | - |
| 1777753676 | 7.78° C | 71% | 1020.7 hPa | 0 mm | - | 0 W/m² | - |
| 1777753067 | 7.78° C | 71% | 1020.7 hPa | 0 mm | - | 0 W/m² | - |
| 1777752461 | 7.78° C | 70% | 1020.7 hPa | 0 mm | - | 0 W/m² | - |
| 1777751854 | 8.89° C | 68% | 1020.7 hPa | 0 mm | - | 0 W/m² | - |
| 1777751247 | 8.89° C | 67% | 1020.8 hPa | 0 mm | - | 0 W/m² | - |
| 1777750640 | 10° C | 65% | 1020.9 hPa | 0 mm | - | 0 W/m² | - |
| 1777750032 | 9.44° C | 65% | 1021 hPa | 0 mm | - | 0 W/m² | - |
| 1777749425 | 10.56° C | 62% | 1021 hPa | 0 mm | - | 0 W/m² | - |
| 1777748816 | 10.56° C | 63% | 1020.8 hPa | 0 mm | - | 0 W/m² | - |
| 1777748210 | 11.67° C | 60% | 1020.6 hPa | 0 mm | - | 0 W/m² | - |
| 1777747603 | 11.67° C | 61% | 1020.8 hPa | 0 mm | - | 0 W/m² | - |
| 1777746996 | 12.22° C | 60% | 1020.7 hPa | 0 mm | - | 0 W/m² | - |
| 1777746388 | 12.78° C | 58% | 1020.7 hPa | 0 mm | - | 0 W/m² | - |
| 1777745781 | 12.78° C | 58% | 1020.5 hPa | 0 mm | - | 1 W/m² | - |
| 1777745176 | 13.89° C | 55% | 1020.4 hPa | 0 mm | - | 3 W/m² | - |
| 1777744568 | 15.56° C | 51% | 1020.3 hPa | 0 mm | - | 7 W/m² | - |
| 1777743960 | 16.67° C | 49% | 1020.3 hPa | 0 mm | - | 11 W/m² | - |
| 1777743353 | 20° C | 35% | 1020.3 hPa | 0 mm | - | 15 W/m² | - |
| 1777742746 | 22.22° C | 30% | 1020.4 hPa | 0 mm | - | 18 W/m² | - |
| 1777742138 | 22.22° C | 28% | 1020.6 hPa | 0 mm | - | 23 W/m² | - |
| 1777741531 | 22.78° C | 28% | 1020.5 hPa | 0 mm | - | 31 W/m² | - |
| 1777740924 | 23.33° C | 28% | 1020.7 hPa | 0 mm | - | 26 W/m² | - |
| 1777740316 | 23.33° C | 26% | 1020.7 hPa | 0 mm | - | 38 W/m² | - |
* Rain latest hour (hover to see other rain measurements)
** Current wind speed in m/s (hover to see current wind gust speed)